Time;durP1;ratioP1;P1;durP2;ratioP2;P2;SDS_P1;SDS_P2;PMS_P1;PMS_P2;Temp;Humidity;BMP_temperature;BMP_pressure;BME280_temperature;BME280_humidity;BME280_pressure;Samples;Min_cycle;Max_cycle;Signal;HPM_P1;HPM_P2
2023/03/06 00:02:16;;;;;;;11.43;5.40;;;2.10;99.90;;;;;;5027051;28;20056;-74
2023/03/06 00:04:41;;;;;;;10.50;5.90;;;2.10;99.90;;;;;;5027048;28;20136;-74
2023/03/06 00:07:07;;;;;;;11.57;5.55;;;2.10;99.90;;;;;;5006776;28;20021;-73
2023/03/06 00:09:33;;;;;;;12.18;5.65;;;2.10;99.90;;;;;;5024186;28;20022;-74
2023/03/06 00:11:58;;;;;;;9.85;5.22;;;2.10;99.90;;;;;;5024097;28;20119;-72
2023/03/06 00:14:24;;;;;;;11.00;5.47;;;2.10;99.90;;;;;;5022690;28;20030;-74
2023/03/06 00:16:53;;;;;;;10.95;5.13;;;2.10;99.90;;;;;;5025770;28;20033;-73
2023/03/06 00:19:19;;;;;;;10.68;5.05;;;2.10;99.90;;;;;;5028849;28;20571;-73
2023/03/06 00:21:45;;;;;;;11.18;5.95;;;2.10;99.90;;;;;;5027643;28;20045;-73
2023/03/06 00:24:10;;;;;;;11.32;6.35;;;2.10;99.90;;;;;;5028400;28;20396;-73
2023/03/06 00:26:36;;;;;;;11.45;5.28;;;2.10;99.90;;;;;;5022474;28;20108;-72
2023/03/06 00:29:02;;;;;;;9.52;4.40;;;2.10;99.90;;;;;;5025350;28;20030;-74
2023/03/06 00:31:28;;;;;;;9.27;4.45;;;2.00;99.90;;;;;;5020399;28;20022;-73
2023/03/06 00:33:53;;;;;;;10.20;5.80;;;2.00;99.90;;;;;;5019836;28;20057;-73
2023/03/06 00:36:19;;;;;;;11.98;6.70;;;2.10;99.90;;;;;;5022784;28;20025;-74
2023/03/06 00:38:45;;;;;;;12.05;6.43;;;2.00;99.90;;;;;;5003193;28;20524;-72
2023/03/06 00:41:11;;;;;;;11.98;6.55;;;2.00;99.90;;;;;;5021210;28;20108;-72
2023/03/06 00:43:38;;;;;;;12.32;7.25;;;2.00;99.90;;;;;;5020788;28;20072;-72
2023/03/06 00:46:04;;;;;;;12.90;7.60;;;2.00;99.90;;;;;;5024946;28;20025;-74
2023/03/06 00:48:31;;;;;;;12.52;6.97;;;2.00;99.90;;;;;;5026873;28;20036;-72
2023/03/06 00:50:57;;;;;;;11.63;6.72;;;2.00;99.90;;;;;;5019648;28;20486;-72
2023/03/06 00:53:23;;;;;;;11.45;6.68;;;1.90;99.90;;;;;;5019793;28;20104;-74
2023/03/06 00:55:50;;;;;;;12.10;6.43;;;1.90;99.90;;;;;;5015682;28;20382;-73
2023/03/06 00:58:16;;;;;;;13.20;5.90;;;1.90;99.90;;;;;;5018732;28;20414;-73
2023/03/06 01:00:42;;;;;;;10.40;5.90;;;1.90;99.90;;;;;;5023031;28;20053;-72
2023/03/06 01:03:08;;;;;;;9.77;5.35;;;1.90;99.90;;;;;;5021931;28;20079;-72
2023/03/06 01:05:35;;;;;;;10.40;4.82;;;1.90;99.90;;;;;;5022222;28;20041;-73
2023/03/06 01:08:02;;;;;;;11.65;5.93;;;1.90;99.90;;;;;;5021031;28;20029;-75
2023/03/06 01:10:28;;;;;;;9.95;5.47;;;1.80;99.90;;;;;;5028056;28;20386;-73
2023/03/06 01:12:54;;;;;;;11.57;5.90;;;1.90;99.90;;;;;;5020584;28;20087;-73
2023/03/06 01:15:20;;;;;;;12.95;6.63;;;1.90;99.90;;;;;;5021524;28;20116;-74
2023/03/06 01:17:46;;;;;;;11.32;6.00;;;1.90;99.90;;;;;;5020106;28;20113;-74
2023/03/06 01:20:14;;;;;;;13.23;7.13;;;1.90;99.90;;;;;;5016065;28;20129;-74
2023/03/06 01:22:40;;;;;;;12.50;7.20;;;1.90;99.90;;;;;;5017141;28;20030;-73
2023/03/06 01:25:06;;;;;;;12.88;6.90;;;1.90;99.90;;;;;;5020889;28;20032;-72
2023/03/06 01:27:32;;;;;;;14.20;6.95;;;1.90;99.90;;;;;;5023274;28;20037;-73
2023/03/06 01:29:57;;;;;;;12.77;6.60;;;1.80;99.90;;;;;;5024798;28;20049;-75
2023/03/06 01:32:23;;;;;;;14.73;7.00;;;1.80;99.90;;;;;;5021978;28;20279;-74
2023/03/06 01:34:49;;;;;;;15.73;7.60;;;1.80;99.90;;;;;;5025789;28;20033;-72
2023/03/06 01:37:14;;;;;;;13.88;6.82;;;1.80;99.90;;;;;;5020479;28;20504;-72
2023/03/06 01:39:40;;;;;;;14.63;7.82;;;1.80;99.90;;;;;;5016742;28;20038;-75
2023/03/06 01:42:06;;;;;;;14.30;7.53;;;1.80;99.90;;;;;;5014679;28;20071;-73
2023/03/06 01:44:32;;;;;;;12.57;6.70;;;1.80;99.90;;;;;;5015779;28;20516;-73
2023/03/06 01:47:01;;;;;;;13.85;7.13;;;1.80;99.90;;;;;;5023396;28;20033;-75
2023/03/06 01:49:39;;;;;;;12.55;6.97;;;1.80;99.90;;;;;;5019733;28;20029;-74
2023/03/06 01:52:13;;;;;;;13.38;7.45;;;1.80;99.90;;;;;;5016286;28;20481;-75
2023/03/06 01:54:53;;;;;;;15.60;7.15;;;1.80;99.90;;;;;;5021599;28;20026;-75
2023/03/06 01:57:32;;;;;;;13.93;7.60;;;1.80;99.90;;;;;;5018541;28;20347;-74
2023/03/06 02:00:08;;;;;;;16.33;7.90;;;1.80;99.90;;;;;;5024409;28;20036;-75
2023/03/06 02:02:35;;;;;;;17.00;9.02;;;1.80;99.90;;;;;;5018684;28;20029;-72
2023/03/06 02:05:03;;;;;;;18.08;9.23;;;1.80;99.90;;;;;;5006682;28;20025;-71
2023/03/06 02:07:30;;;;;;;19.10;8.85;;;1.80;99.90;;;;;;5005512;28;20038;-72
2023/03/06 02:09:56;;;;;;;16.77;9.25;;;1.80;99.90;;;;;;5018431;28;20049;-73
2023/03/06 02:12:22;;;;;;;18.38;9.25;;;1.80;99.90;;;;;;5017111;28;20026;-72
2023/03/06 02:14:48;;;;;;;19.45;9.25;;;1.80;99.90;;;;;;5012521;28;20022;-73
2023/03/06 02:17:18;;;;;;;20.02;10.38;;;1.90;99.90;;;;;;5017628;28;20551;-72
2023/03/06 02:20:01;;;;;;;20.65;10.40;;;1.90;99.90;;;;;;5012036;28;20054;-73
2023/03/06 02:22:36;;;;;;;24.05;11.90;;;1.90;99.90;;;;;;5021576;28;20033;-74
2023/03/06 02:25:25;;;;;;;24.45;10.93;;;1.80;99.90;;;;;;5013049;28;20038;-74
2023/03/06 02:27:51;;;;;;;23.13;12.85;;;1.80;99.90;;;;;;5016592;28;20052;-75
2023/03/06 02:30:17;;;;;;;24.85;12.45;;;1.80;99.90;;;;;;5013227;28;20041;-74
2023/03/06 02:32:43;;;;;;;23.90;12.18;;;1.90;99.90;;;;;;5015728;28;20373;-71
2023/03/06 02:35:18;;;;;;;25.13;12.35;;;1.90;99.90;;;;;;5012160;28;20052;-72
2023/03/06 02:37:45;;;;;;;23.63;12.32;;;1.90;99.90;;;;;;5017521;28;20108;-73
2023/03/06 02:40:13;;;;;;;24.05;12.38;;;1.80;99.90;;;;;;4993357;28;20506;-72
2023/03/06 02:42:57;;;;;;;23.55;12.27;;;1.80;99.90;;;;;;5017124;28;20030;-72
2023/03/06 02:45:43;;;;;;;27.00;13.38;;;1.80;99.90;;;;;;5036652;28;20111;-73
2023/03/06 02:48:09;;;;;;;26.50;12.30;;;1.70;99.90;;;;;;5018652;28;20030;-73
2023/03/06 02:50:34;;;;;;;27.63;13.05;;;1.70;99.90;;;;;;5017297;28;20030;-74
2023/03/06 02:53:00;;;;;;;26.50;13.15;;;1.80;99.90;;;;;;5013965;28;20500;-72
2023/03/06 02:55:26;;;;;;;23.30;11.90;;;1.70;99.90;;;;;;5021005;28;20501;-74
2023/03/06 02:57:51;;;;;;;25.23;12.20;;;1.70;99.90;;;;;;5018673;28;20127;-74
2023/03/06 03:00:18;;;;;;;25.13;12.57;;;1.80;99.90;;;;;;5025204;28;20025;-74
2023/03/06 03:02:44;;;;;;;26.42;13.18;;;1.80;99.90;;;;;;5026863;28;20021;-75
2023/03/06 03:05:10;;;;;;;23.40;11.57;;;1.80;99.90;;;;;;5018977;28;20045;-75
2023/03/06 03:07:35;;;;;;;21.55;11.40;;;1.80;99.90;;;;;;5013436;28;20493;-73
2023/03/06 03:10:01;;;;;;;21.27;11.32;;;1.80;99.90;;;;;;5017096;28;20028;-73
2023/03/06 03:12:27;;;;;;;20.75;10.45;;;1.80;99.90;;;;;;5015157;28;20028;-73
2023/03/06 03:14:54;;;;;;;21.73;9.93;;;1.80;99.90;;;;;;5031145;28;20029;-72
2023/03/06 03:17:21;;;;;;;20.10;10.15;;;1.80;99.90;;;;;;5031926;28;20493;-73
2023/03/06 03:19:47;;;;;;;19.75;9.18;;;1.80;99.90;;;;;;5031169;28;20123;-72
2023/03/06 03:22:12;;;;;;;17.33;8.57;;;1.80;99.90;;;;;;5030081;28;20568;-74
2023/03/06 03:24:38;;;;;;;15.23;8.40;;;1.80;99.90;;;;;;5031263;28;20026;-74
2023/03/06 03:27:07;;;;;;;14.00;6.28;;;1.80;99.90;;;;;;5029489;28;20524;-72
2023/03/06 03:29:33;;;;;;;12.88;6.63;;;1.80;99.90;;;;;;5031210;28;20115;-74
2023/03/06 03:31:59;;;;;;;14.73;6.50;;;1.80;99.90;;;;;;5030218;28;20488;-73
2023/03/06 03:34:25;;;;;;;13.98;6.43;;;1.70;99.90;;;;;;5029128;28;20441;-73
2023/03/06 03:36:51;;;;;;;14.57;7.18;;;1.80;99.90;;;;;;5029834;28;20022;-73
2023/03/06 03:39:16;;;;;;;17.23;7.18;;;1.70;99.90;;;;;;5029705;28;20473;-74
2023/03/06 03:41:42;;;;;;;15.65;7.15;;;1.80;99.90;;;;;;5028717;28;20443;-74
2023/03/06 03:44:09;;;;;;;16.63;7.10;;;1.70;99.90;;;;;;5028966;28;20025;-72
2023/03/06 03:46:34;;;;;;;17.75;7.63;;;1.70;99.90;;;;;;5028260;28;20389;-74
2023/03/06 03:49:00;;;;;;;15.90;6.45;;;1.70;99.90;;;;;;5024382;28;20029;-74
2023/03/06 03:51:26;;;;;;;15.60;7.50;;;1.70;99.90;;;;;;5030674;28;20473;-72
2023/03/06 03:53:52;;;;;;;17.25;5.90;;;1.60;99.90;;;;;;5027826;28;20501;-74
2023/03/06 03:56:18;;;;;;;13.57;5.85;;;1.60;99.90;;;;;;5027058;28;20029;-73
2023/03/06 03:58:43;;;;;;;13.05;5.03;;;1.60;99.90;;;;;;5027672;28;20033;-74
2023/03/06 04:01:09;;;;;;;13.30;5.45;;;1.60;99.90;;;;;;5026729;28;20030;-74
2023/03/06 04:03:35;;;;;;;12.57;4.95;;;1.60;99.90;;;;;;5028970;28;20034;-74
2023/03/06 04:06:01;;;;;;;10.55;5.22;;;1.60;99.90;;;;;;5026782;28;20532;-74
2023/03/06 04:08:27;;;;;;;14.93;5.70;;;1.60;99.90;;;;;;5026019;28;20033;-74
2023/03/06 04:10:53;;;;;;;11.10;5.68;;;1.70;99.90;;;;;;5025930;28;20523;-75
2023/03/06 04:13:20;;;;;;;14.07;5.53;;;1.60;99.90;;;;;;5025763;28;20036;-73
2023/03/06 04:15:51;;;;;;;13.35;5.95;;;1.70;99.90;;;;;;5027678;28;20030;-75
2023/03/06 04:18:18;;;;;;;14.35;5.72;;;1.70;99.90;;;;;;5026479;28;20037;-73
2023/03/06 04:20:45;;;;;;;12.95;5.25;;;1.70;99.90;;;;;;5027458;28;20502;-73
2023/03/06 04:23:11;;;;;;;14.27;5.97;;;1.70;99.90;;;;;;5025888;28;20029;-74
2023/03/06 04:25:37;;;;;;;14.82;5.95;;;1.70;99.90;;;;;;5025864;28;20032;-74
2023/03/06 04:28:05;;;;;;;13.98;5.35;;;1.60;99.90;;;;;;5027371;28;20517;-75
2023/03/06 04:30:31;;;;;;;13.55;5.78;;;1.60;99.90;;;;;;5026389;28;20104;-73
2023/03/06 04:32:57;;;;;;;11.05;5.22;;;1.60;99.90;;;;;;5029509;28;20075;-75
2023/03/06 04:35:23;;;;;;;11.88;5.32;;;1.60;99.90;;;;;;5023795;28;20053;-73
2023/03/06 04:37:48;;;;;;;12.85;5.18;;;1.50;99.90;;;;;;5030549;28;20058;-74
2023/03/06 04:40:20;;;;;;;8.35;4.75;;;1.50;99.90;;;;;;5024824;28;20061;-74
2023/03/06 04:42:46;;;;;;;9.45;4.80;;;1.50;99.90;;;;;;5025505;28;20272;-73
2023/03/06 04:45:12;;;;;;;9.60;4.22;;;1.40;99.90;;;;;;5022835;28;20437;-73
2023/03/06 04:47:38;;;;;;;7.45;3.97;;;1.40;99.90;;;;;;5023327;28;20029;-74
2023/03/06 04:50:05;;;;;;;11.60;4.32;;;1.40;99.90;;;;;;5024811;28;20083;-75
2023/03/06 04:52:30;;;;;;;8.32;3.00;;;1.40;99.90;;;;;;5027920;28;20025;-72
2023/03/06 04:54:56;;;;;;;6.68;2.80;;;1.40;99.90;;;;;;5022124;28;20021;-74
2023/03/06 04:57:22;;;;;;;11.40;3.17;;;1.30;99.90;;;;;;5023298;28;20025;-74
2023/03/06 04:59:49;;;;;;;10.20;3.22;;;1.30;99.90;;;;;;5021827;28;20029;-74
2023/03/06 05:02:16;;;;;;;6.53;2.70;;;1.30;99.90;;;;;;5025232;28;20057;-74
2023/03/06 05:04:42;;;;;;;3.20;1.55;;;1.30;99.90;;;;;;5021058;28;20026;-72
2023/03/06 05:07:08;;;;;;;4.25;1.90;;;1.20;99.90;;;;;;5022526;28;20030;-73
2023/03/06 05:09:35;;;;;;;3.78;1.80;;;1.20;99.90;;;;;;5007581;28;20065;-74
2023/03/06 05:12:01;;;;;;;3.92;1.58;;;1.20;99.90;;;;;;5020285;28;20064;-74
2023/03/06 05:14:31;;;;;;;3.97;1.52;;;1.20;99.90;;;;;;5021795;28;20022;-73
2023/03/06 05:16:56;;;;;;;5.07;1.95;;;1.20;99.90;;;;;;5022605;28;20022;-73
2023/03/06 05:19:22;;;;;;;5.57;2.40;;;1.10;99.90;;;;;;5022694;28;20176;-74
2023/03/06 05:21:48;;;;;;;7.82;2.08;;;1.10;99.90;;;;;;5020046;28;20022;-74
2023/03/06 05:24:14;;;;;;;6.20;3.10;;;1.10;99.90;;;;;;5020094;28;20100;-74
2023/03/06 05:26:40;;;;;;;7.95;3.75;;;1.00;99.90;;;;;;5021307;28;20330;-73
2023/03/06 05:29:06;;;;;;;8.35;4.13;;;1.00;99.90;;;;;;5027626;28;20477;-73
2023/03/06 05:31:31;;;;;;;12.38;4.70;;;1.00;99.90;;;;;;5006473;28;20168;-74
2023/03/06 05:33:58;;;;;;;12.02;5.63;;;1.10;99.90;;;;;;5026126;28;20137;-72
2023/03/06 05:36:24;;;;;;;13.20;5.93;;;1.10;99.90;;;;;;5024277;28;20238;-74
2023/03/06 05:38:49;;;;;;;13.02;6.68;;;1.10;99.90;;;;;;5023527;28;20043;-74
2023/03/06 05:41:15;;;;;;;12.45;6.22;;;1.20;99.90;;;;;;5016262;28;20464;-73
2023/03/06 05:43:41;;;;;;;13.88;7.80;;;1.20;99.90;;;;;;5019308;28;20504;-75
2023/03/06 05:46:07;;;;;;;14.88;7.63;;;1.20;99.90;;;;;;5020947;28;20345;-73
2023/03/06 05:48:34;;;;;;;16.65;7.50;;;1.20;99.90;;;;;;5024020;28;20034;-72
2023/03/06 05:51:01;;;;;;;19.25;8.65;;;1.20;99.90;;;;;;5022493;28;20133;-72
2023/03/06 05:53:28;;;;;;;17.73;8.65;;;1.20;99.90;;;;;;5004599;28;20330;-73
2023/03/06 05:56:08;;;;;;;16.58;7.97;;;1.20;99.90;;;;;;5021640;28;20030;-72
2023/03/06 05:58:34;;;;;;;16.58;8.35;;;1.20;99.90;;;;;;5006317;28;20034;-73
2023/03/06 06:01:06;;;;;;;15.73;8.32;;;1.30;99.90;;;;;;5016603;28;20033;-72
2023/03/06 06:03:32;;;;;;;14.15;6.60;;;1.30;99.90;;;;;;5037311;28;20034;-73
2023/03/06 06:05:58;;;;;;;14.00;6.78;;;1.30;99.90;;;;;;5019792;28;20044;-72
2023/03/06 06:08:23;;;;;;;12.65;7.07;;;1.30;99.90;;;;;;5023585;28;20026;-72
2023/03/06 06:10:49;;;;;;;16.58;7.47;;;1.30;99.90;;;;;;5015875;28;20026;-72
2023/03/06 06:13:15;;;;;;;12.05;6.03;;;1.30;99.90;;;;;;5004855;28;20117;-72
2023/03/06 06:15:40;;;;;;;15.43;7.43;;;1.30;99.90;;;;;;5015911;28;20026;-72
2023/03/06 06:18:06;;;;;;;14.93;6.07;;;1.30;99.90;;;;;;5024178;28;20072;-74
2023/03/06 06:20:32;;;;;;;13.82;6.75;;;1.30;99.90;;;;;;4998590;28;20037;-73
2023/03/06 06:22:58;;;;;;;12.95;6.55;;;1.30;99.90;;;;;;5005134;28;20033;-72
2023/03/06 06:25:23;;;;;;;13.13;5.93;;;1.30;99.90;;;;;;5027833;28;20393;-73
2023/03/06 06:27:49;;;;;;;12.15;6.18;;;1.40;99.90;;;;;;5022246;28;20508;-72
2023/03/06 06:30:15;;;;;;;12.07;5.60;;;1.40;99.90;;;;;;5024617;28;20060;-72
2023/03/06 06:32:41;;;;;;;11.07;5.85;;;1.40;99.90;;;;;;5018495;28;20025;-74
2023/03/06 06:35:06;;;;;;;12.43;5.95;;;1.50;99.90;;;;;;5019943;28;20159;-72
2023/03/06 06:37:32;;;;;;;14.98;7.57;;;1.50;99.90;;;;;;5016313;28;20497;-73
2023/03/06 06:39:58;;;;;;;15.77;7.72;;;1.50;99.90;;;;;;5025336;28;20040;-72
2023/03/06 06:42:23;;;;;;;13.10;7.32;;;1.50;99.90;;;;;;5020901;28;20165;-72
2023/03/06 06:44:50;;;;;;;12.73;7.03;;;1.60;99.90;;;;;;5019513;28;20029;-72
2023/03/06 06:47:15;;;;;;;14.27;6.78;;;1.60;99.90;;;;;;5022710;28;20029;-72
2023/03/06 06:49:41;;;;;;;14.77;8.02;;;1.60;99.90;;;;;;5019002;28;20021;-71
2023/03/06 06:52:07;;;;;;;12.80;7.05;;;1.60;99.90;;;;;;5014932;28;20025;-72
2023/03/06 06:54:33;;;;;;;15.57;7.63;;;1.60;99.90;;;;;;5021656;28;20018;-72
2023/03/06 06:56:59;;;;;;;14.02;6.60;;;1.60;99.90;;;;;;5020991;28;20043;-72
2023/03/06 06:59:25;;;;;;;16.38;7.32;;;1.60;99.90;;;;;;5018289;28;20022;-74
2023/03/06 07:01:51;;;;;;;12.85;6.57;;;1.50;99.90;;;;;;5021359;28;20030;-72
2023/03/06 07:04:17;;;;;;;11.85;6.32;;;1.50;99.90;;;;;;5023355;28;20022;-72
2023/03/06 07:06:44;;;;;;;14.43;7.28;;;1.50;99.90;;;;;;5018308;28;20054;-73
2023/03/06 07:09:10;;;;;;;14.30;6.28;;;1.50;99.90;;;;;;5015423;28;20037;-73
2023/03/06 07:11:37;;;;;;;14.13;6.90;;;1.50;99.90;;;;;;5025869;28;20030;-73
2023/03/06 07:14:03;;;;;;;12.30;6.40;;;1.50;99.90;;;;;;5030122;28;20018;-72
2023/03/06 07:16:28;;;;;;;13.13;6.70;;;1.50;99.90;;;;;;5025275;28;20048;-72
2023/03/06 07:18:54;;;;;;;17.10;8.68;;;1.50;99.90;;;;;;5007669;28;20029;-74
2023/03/06 07:21:20;;;;;;;14.68;6.78;;;1.50;99.90;;;;;;5021626;28;20049;-75
2023/03/06 07:23:46;;;;;;;15.18;6.68;;;1.50;99.90;;;;;;5021764;28;20053;-73
2023/03/06 07:26:11;;;;;;;11.80;5.60;;;1.50;99.90;;;;;;5027249;28;20477;-73
2023/03/06 07:28:37;;;;;;;15.07;7.32;;;1.50;99.90;;;;;;5022996;28;20100;-73
2023/03/06 07:31:10;;;;;;;19.45;9.25;;;1.50;99.90;;;;;;5002433;28;20080;-74
2023/03/06 07:33:37;;;;;;;17.73;9.02;;;1.50;99.90;;;;;;5007139;28;20393;-74
2023/03/06 07:36:06;;;;;;;19.75;9.70;;;1.60;99.90;;;;;;5014955;28;20030;-74
2023/03/06 07:38:32;;;;;;;23.20;11.30;;;1.60;99.90;;;;;;5013182;28;20041;-72
2023/03/06 07:40:58;;;;;;;20.90;10.25;;;1.70;99.90;;;;;;5024597;28;20022;-73
2023/03/06 07:43:24;;;;;;;22.38;10.73;;;1.60;99.90;;;;;;5012637;28;20026;-72
2023/03/06 07:45:57;;;;;;;26.00;11.65;;;1.60;99.90;;;;;;5015965;28;20036;-72
2023/03/06 07:48:23;;;;;;;24.98;10.68;;;1.60;99.90;;;;;;5018300;28;20026;-74
2023/03/06 07:50:57;;;;;;;24.10;10.27;;;1.60;99.90;;;;;;5018421;28;20462;-71
2023/03/06 07:53:23;;;;;;;23.15;10.70;;;1.70;99.90;;;;;;5027970;28;20053;-73
2023/03/06 07:55:49;;;;;;;25.55;10.43;;;1.70;99.90;;;;;;5016527;28;20026;-72
2023/03/06 07:58:16;;;;;;;21.88;10.20;;;1.80;99.90;;;;;;5018536;28;20061;-72
2023/03/06 08:00:42;;;;;;;21.63;9.80;;;1.90;99.90;;;;;;5018420;28;20034;-73
2023/03/06 08:03:10;;;;;;;18.77;8.73;;;1.90;99.90;;;;;;5029558;28;20030;-73
2023/03/06 08:05:36;;;;;;;23.33;10.07;;;2.00;99.90;;;;;;5013245;28;20025;-72
2023/03/06 08:08:02;;;;;;;22.15;9.82;;;2.10;99.90;;;;;;5019121;28;20022;-73
2023/03/06 08:10:27;;;;;;;22.40;9.75;;;2.10;99.90;;;;;;5011132;28;20101;-73
2023/03/06 08:12:53;;;;;;;19.10;9.27;;;2.10;99.90;;;;;;5017754;28;20018;-73
2023/03/06 08:15:19;;;;;;;20.63;8.90;;;2.10;99.90;;;;;;5021127;28;20035;-73
2023/03/06 08:17:46;;;;;;;15.88;7.93;;;2.10;99.90;;;;;;5029813;28;20494;-73
2023/03/06 08:20:13;;;;;;;18.45;8.38;;;2.10;99.90;;;;;;5029683;28;20068;-72
2023/03/06 08:22:39;;;;;;;15.63;7.97;;;2.20;99.90;;;;;;5029675;28;20072;-72
2023/03/06 08:25:06;;;;;;;16.48;8.20;;;2.10;99.90;;;;;;5030271;28;20029;-72
2023/03/06 08:27:33;;;;;;;18.38;8.82;;;2.10;99.90;;;;;;5030218;28;20041;-74
2023/03/06 08:29:59;;;;;;;14.85;8.43;;;2.10;99.90;;;;;;5030665;28;20125;-74
2023/03/06 08:32:26;;;;;;;18.98;9.32;;;2.10;99.90;;;;;;5028570;28;20025;-74
2023/03/06 08:34:52;;;;;;;16.05;8.88;;;2.10;99.90;;;;;;5029906;28;20021;-72
2023/03/06 08:37:17;;;;;;;16.48;7.68;;;2.20;99.90;;;;;;5030434;28;20109;-73
2023/03/06 08:39:43;;;;;;;15.05;7.78;;;2.20;99.90;;;;;;5022264;28;20606;-72
2023/03/06 08:42:10;;;;;;;13.50;6.90;;;2.20;99.90;;;;;;5028588;28;20033;-74
2023/03/06 08:44:36;;;;;;;12.27;6.68;;;2.30;99.90;;;;;;5031371;28;20159;-74
2023/03/06 08:47:02;;;;;;;12.18;6.68;;;2.30;99.90;;;;;;4996996;28;20033;-73
2023/03/06 08:49:29;;;;;;;12.75;5.82;;;2.30;99.90;;;;;;5029465;28;20159;-72
2023/03/06 08:51:55;;;;;;;13.35;6.35;;;2.30;99.90;;;;;;5021661;28;20033;-74
2023/03/06 08:54:20;;;;;;;16.67;6.88;;;2.30;99.90;;;;;;5029833;28;20017;-74
2023/03/06 08:56:46;;;;;;;12.93;5.28;;;2.30;99.90;;;;;;5026478;28;20038;-73
2023/03/06 08:59:12;;;;;;;12.20;5.72;;;2.20;99.90;;;;;;5027252;28;20021;-73
2023/03/06 09:01:38;;;;;;;15.00;6.68;;;2.30;99.90;;;;;;5027336;28;20025;-73
2023/03/06 09:04:07;;;;;;;10.73;6.20;;;2.30;99.90;;;;;;5028290;28;20029;-74
2023/03/06 09:06:36;;;;;;;12.60;6.40;;;2.40;99.90;;;;;;5028301;28;20071;-74
2023/03/06 09:09:03;;;;;;;10.23;6.00;;;2.40;99.90;;;;;;5030356;28;20030;-74
2023/03/06 09:11:29;;;;;;;9.85;5.90;;;2.50;99.90;;;;;;5026796;28;20080;-72
2023/03/06 09:13:56;;;;;;;14.20;6.88;;;2.60;99.90;;;;;;5026224;28;20048;-73
2023/03/06 09:16:24;;;;;;;14.80;7.10;;;2.60;99.90;;;;;;5024261;28;20025;-73
2023/03/06 09:18:51;;;;;;;15.10;7.15;;;2.50;99.90;;;;;;5024438;28;20033;-73
2023/03/06 09:21:18;;;;;;;14.40;7.20;;;2.60;99.90;;;;;;5027402;28;20096;-73
2023/03/06 09:23:44;;;;;;;12.35;7.63;;;2.60;99.90;;;;;;5024366;28;20615;-73
2023/03/06 09:26:11;;;;;;;14.50;8.25;;;2.70;99.90;;;;;;5025471;28;20116;-71
2023/03/06 09:28:38;;;;;;;13.50;7.70;;;2.70;99.90;;;;;;5025151;28;20104;-73
2023/03/06 09:31:09;;;;;;;16.48;8.02;;;2.70;99.90;;;;;;5024582;28;20032;-72
2023/03/06 09:33:35;;;;;;;17.50;9.13;;;2.60;99.90;;;;;;5024956;28;20086;-72
2023/03/06 09:36:01;;;;;;;17.80;8.82;;;2.50;99.90;;;;;;5025511;28;20036;-73
2023/03/06 09:38:27;;;;;;;17.95;8.65;;;2.50;99.90;;;;;;5021393;28;20564;-72
2023/03/06 09:40:56;;;;;;;17.25;8.68;;;2.50;99.90;;;;;;5026499;28;20041;-73
2023/03/06 09:43:34;;;;;;;18.20;9.10;;;2.60;99.90;;;;;;5008749;28;20036;-72
2023/03/06 09:46:15;;;;;;;19.67;9.00;;;2.60;99.90;;;;;;5022475;28;20033;-73
2023/03/06 09:48:46;;;;;;;;;;;2.70;99.90;;;;;;5023881;28;20133;-72
2023/03/06 09:51:15;;;;;;;;;;;2.70;99.90;;;;;;5025920;28;19912;-73
2023/03/06 09:53:56;;;;;;;14.95;8.35;;;2.80;99.90;;;;;;5023352;28;19983;-75
2023/03/06 09:56:29;;;;;;;15.60;8.00;;;2.90;99.90;;;;;;5026047;28;20025;-73
2023/03/06 09:59:04;;;;;;;16.52;8.82;;;3.00;99.90;;;;;;5009666;28;20144;-73
2023/03/06 10:01:35;;;;;;;17.13;8.93;;;3.00;99.90;;;;;;5024333;28;20059;-73
2023/03/06 10:04:07;;;;;;;14.07;8.50;;;2.90;99.90;;;;;;5024283;28;20114;-73
2023/03/06 10:06:47;;;;;;;15.55;8.18;;;2.90;99.90;;;;;;5006196;28;20095;-72
2023/03/06 10:09:38;;;;;;;14.85;8.68;;;2.90;99.90;;;;;;5024475;28;20028;-75
2023/03/06 10:12:14;;;;;;;15.30;8.73;;;3.00;99.90;;;;;;5024374;28;20034;-75
2023/03/06 10:14:50;;;;;;;16.52;9.02;;;3.00;99.90;;;;;;5029242;28;20112;-73
2023/03/06 10:17:22;;;;;;;13.77;7.30;;;3.20;99.90;;;;;;5015790;28;20099;-72
2023/03/06 10:19:48;;;;;;;10.25;6.68;;;3.40;99.90;;;;;;5008138;28;20064;-74
2023/03/06 10:22:34;;;;;;;10.95;6.45;;;3.40;99.90;;;;;;5026068;28;20033;-74
2023/03/06 10:25:20;;;;;;;8.95;5.60;;;3.90;99.90;;;;;;5023791;28;20065;-73
2023/03/06 10:27:50;;;;;;;10.00;6.28;;;4.50;99.90;;;;;;5012767;28;20109;-74
2023/03/06 10:30:41;;;;;;;12.13;6.65;;;4.40;99.90;;;;;;5024287;28;20018;-74
2023/03/06 10:33:31;;;;;;;11.45;6.57;;;4.30;99.90;;;;;;5025388;28;20109;-73
2023/03/06 10:35:57;;;;;;;10.35;6.60;;;4.00;99.90;;;;;;5020178;28;20524;-73
2023/03/06 10:38:24;;;;;;;9.10;6.45;;;4.00;99.90;;;;;;5016468;28;20030;-74
2023/03/06 10:40:57;;;;;;;10.73;5.78;;;4.60;99.90;;;;;;5023344;28;20026;-73
2023/03/06 10:43:23;;;;;;;8.57;6.35;;;5.20;99.90;;;;;;5026441;28;20377;-75
2023/03/06 10:45:52;;;;;;;9.85;5.72;;;5.60;99.90;;;;;;5024325;28;20026;-74
2023/03/06 10:48:20;;;;;;;10.23;5.90;;;5.50;99.90;;;;;;5007824;28;20212;-73
2023/03/06 10:50:47;;;;;;;9.95;5.60;;;5.80;99.90;;;;;;5019354;28;20039;-72
2023/03/06 10:53:24;;;;;;;7.72;5.75;;;5.50;99.90;;;;;;5008472;28;20133;-75
2023/03/06 10:55:59;;;;;;;8.18;5.72;;;5.20;99.90;;;;;;5022813;28;20030;-74
2023/03/06 10:58:26;;;;;;;8.20;5.28;;;4.90;99.90;;;;;;5009741;28;20033;-73
2023/03/06 11:01:19;;;;;;;7.22;4.78;;;5.20;99.90;;;;;;5017435;28;20028;-74
2023/03/06 11:03:46;;;;;;;6.65;4.70;;;6.00;99.90;;;;;;5015421;28;20039;-73
2023/03/06 11:06:33;;;;;;;8.07;4.30;;;6.00;99.90;;;;;;4999259;28;20132;-74
2023/03/06 11:09:17;;;;;;;7.20;3.92;;;6.50;99.90;;;;;;5014828;28;20030;-74
2023/03/06 11:11:43;;;;;;;4.45;3.03;;;7.70;99.90;;;;;;5024940;28;20573;-73
2023/03/06 11:14:23;;;;;;;6.88;3.17;;;8.90;99.90;;;;;;5022122;28;20120;-73
2023/03/06 11:16:52;;;;;;;4.75;2.72;;;9.90;99.90;;;;;;5017442;28;20021;-74
2023/03/06 11:19:25;;;;;;;4.85;2.90;;;9.80;99.90;;;;;;5028066;28;20029;-73
2023/03/06 11:22:03;;;;;;;5.07;2.90;;;10.40;96.40;;;;;;5027023;28;20076;-73
2023/03/06 11:24:41;;;;;;;6.65;3.47;;;9.70;98.70;;;;;;5015349;28;20026;-74
2023/03/06 11:27:25;;;;;;;6.53;3.10;;;8.50;99.90;;;;;;5018852;28;20102;-75
2023/03/06 11:29:53;;;;;;;5.00;3.00;;;8.50;99.90;;;;;;5021186;28;20018;-75
2023/03/06 11:32:41;;;;;;;7.07;3.33;;;7.90;99.90;;;;;;5026732;28;20455;-73
2023/03/06 11:35:25;;;;;;;7.45;2.45;;;7.20;99.90;;;;;;5020176;28;20026;-73
2023/03/06 11:37:52;;;;;;;6.38;2.60;;;6.30;99.90;;;;;;5021914;28;20061;-73
2023/03/06 11:40:35;;;;;;;4.97;2.15;;;5.90;99.90;;;;;;5017465;28;20030;-73
2023/03/06 11:43:54;;;;;;;5.60;2.20;;;5.60;99.90;;;;;;5021162;28;20063;-74
2023/03/06 11:46:25;;;;;;;4.20;1.63;;;5.80;99.90;;;;;;4963736;28;20041;-74
2023/03/06 11:49:03;;;;;;;;;;;6.00;99.90;;;;;;5015072;28;20541;-74
2023/03/06 11:51:34;;;;;;;3.78;2.03;;;5.90;99.90;;;;;;5021658;28;19905;-75
2023/03/06 11:54:01;;;;;;;2.13;1.40;;;6.00;99.90;;;;;;5013253;28;20057;-74
2023/03/06 11:56:50;;;;;;;3.95;1.33;;;5.90;99.90;;;;;;5022359;28;20486;-74
2023/03/06 11:59:47;;;;;;;5.22;1.27;;;5.70;99.90;;;;;;5020125;28;20022;-74
2023/03/06 12:02:38;;;;;;;5.85;1.20;;;5.50;99.90;;;;;;5023606;28;20021;-73
2023/03/06 12:05:07;;;;;;;;;;;5.50;99.90;;;;;;5019525;28;20026;-74
2023/03/06 12:07:51;;;;;;;4.10;1.27;;;5.60;99.90;;;;;;5020651;28;19909;-73
2023/03/06 12:10:22;;;;;;;1.23;0.70;;;5.40;99.90;;;;;;5014985;28;20264;-73
2023/03/06 12:12:53;;;;;;;3.30;1.00;;;5.30;99.90;;;;;;5019837;28;20026;-75
2023/03/06 12:15:29;;;;;;;3.25;0.88;;;5.30;99.90;;;;;;5019508;28;20099;-73
2023/03/06 12:18:13;;;;;;;2.63;0.73;;;5.30;99.90;;;;;;5018913;28;20283;-73
2023/03/06 12:20:50;;;;;;;2.92;0.70;;;5.20;99.90;;;;;;5003607;28;20033;-74
2023/03/06 12:23:34;;;;;;;3.55;0.70;;;5.10;99.90;;;;;;5022293;28;20022;-75
2023/03/06 12:26:30;;;;;;;2.50;0.63;;;5.10;99.90;;;;;;5037961;28;20107;-73
2023/03/06 12:29:12;;;;;;;1.75;0.70;;;5.00;99.90;;;;;;5019719;28;20033;-73
2023/03/06 12:31:50;;;;;;;3.65;0.80;;;5.00;99.90;;;;;;5014086;28;20034;-75
2023/03/06 12:34:37;;;;;;;3.92;0.75;;;4.90;99.90;;;;;;5025447;28;20035;-75
2023/03/06 12:37:27;;;;;;;3.45;0.60;;;4.90;99.90;;;;;;5017769;28;20405;-73
2023/03/06 12:40:54;;;;;;;7.53;0.90;;;5.30;99.90;;;;;;5013301;28;20261;-73
2023/03/06 12:43:20;;;;;;;2.63;0.70;;;5.10;99.90;;;;;;4932716;29;20028;-74
2023/03/06 12:45:48;;;;;;;1.40;0.60;;;5.00;99.90;;;;;;4922068;29;20030;-73
2023/03/06 12:48:26;;;;;;;4.57;0.80;;;5.00;99.90;;;;;;4978313;28;20105;-73
2023/03/06 12:50:53;;;;;;;3.42;0.90;;;5.00;99.90;;;;;;5018594;28;20033;-72
2023/03/06 12:53:30;;;;;;;2.40;0.98;;;5.10;99.90;;;;;;5017443;28;20370;-74
2023/03/06 12:55:59;;;;;;;3.80;0.90;;;5.30;99.90;;;;;;5017306;28;20628;-73
2023/03/06 12:58:27;;;;;;;5.68;1.30;;;5.40;99.90;;;;;;5019193;28;20022;-75
2023/03/06 13:01:18;;;;;;;4.68;0.88;;;5.40;99.90;;;;;;5012443;28;20057;-74
2023/03/06 13:03:58;;;;;;;6.38;1.70;;;5.40;99.90;;;;;;5015530;28;20656;-72